createdAt,value
2022-08-10T00:01:10.921Z,46.22
2022-08-10T00:04:15.614Z,46.31
2022-08-10T00:07:23.248Z,46.08
2022-08-10T00:10:25.389Z,46.47
2022-08-10T00:13:27.112Z,46.28
2022-08-10T00:16:28.758Z,46.49
2022-08-10T00:20:02.383Z,46.13
2022-08-10T00:22:52.912Z,46.46
2022-08-10T00:26:00.345Z,46.25
2022-08-10T00:29:01.894Z,46.43
2022-08-10T00:32:03.773Z,46.57
2022-08-10T00:35:05.855Z,46.41
2022-08-10T00:38:07.420Z,46.38
2022-08-10T00:41:09.017Z,46.41
2022-08-10T00:44:10.639Z,46.43
2022-08-10T00:47:36.154Z,46.30
2022-08-10T00:50:35.693Z,46.44
2022-08-10T00:53:37.350Z,46.78
2022-08-10T00:57:16.415Z,46.76
2022-08-10T01:00:00.960Z,46.59
2022-08-10T01:03:03.053Z,46.55
2022-08-10T01:06:43.057Z,46.44
2022-08-10T01:09:55.909Z,46.53
2022-08-10T01:13:11.068Z,46.71
2022-08-10T01:16:31.210Z,46.75
2022-08-10T01:19:38.592Z,46.61
2022-08-10T01:22:58.582Z,46.54
2022-08-10T01:26:58.075Z,46.72
2022-08-10T01:30:11.344Z,46.80
2022-08-10T01:33:57.785Z,46.60
2022-08-10T01:36:54.213Z,46.66
2022-08-10T01:39:58.701Z,47.00
2022-08-10T01:43:08.642Z,46.81
2022-08-10T01:46:14.433Z,47.00
2022-08-10T01:49:20.272Z,46.96
2022-08-10T01:52:26.563Z,47.07
2022-08-10T01:55:30.458Z,47.36
2022-08-10T01:58:35.606Z,46.95
2022-08-10T02:01:47.943Z,47.07
2022-08-10T02:04:52.085Z,47.20
2022-08-10T02:07:57.496Z,46.89
2022-08-10T02:11:01.773Z,47.17
2022-08-10T02:14:03.908Z,47.36
2022-08-10T02:18:00.968Z,47.00
2022-08-10T02:20:44.581Z,47.16
2022-08-10T02:23:46.925Z,47.03
2022-08-10T02:27:01.928Z,47.04
2022-08-10T02:30:07.192Z,47.06
2022-08-10T02:33:10.177Z,47.37
2022-08-10T02:36:14.844Z,47.48
2022-08-10T02:39:18.945Z,47.14
2022-08-10T02:45:26.484Z,47.44
2022-08-10T02:46:08.565Z,47.45
2022-08-10T02:49:17.779Z,47.63
2022-08-10T02:52:28.153Z,47.35
2022-08-10T02:55:48.286Z,47.51
2022-08-10T02:58:58.993Z,47.31
2022-08-10T03:02:05.084Z,47.59
2022-08-10T03:05:12.030Z,47.51
2022-08-10T03:08:18.689Z,47.78
2022-08-10T03:12:35.531Z,47.81
2022-08-10T03:14:50.845Z,47.68
2022-08-10T03:17:57.517Z,47.99
2022-08-10T03:21:01.622Z,47.74
2022-08-10T03:24:30.229Z,47.81
2022-08-10T03:27:29.094Z,48.07
2022-08-10T03:30:33.943Z,47.83
2022-08-10T03:33:39.932Z,48.02
2022-08-10T03:36:45.111Z,47.77
2022-08-10T03:39:47.031Z,48.03
2022-08-10T03:42:51.808Z,48.08
2022-08-10T03:45:56.837Z,47.93
2022-08-10T03:49:02.157Z,48.11
2022-08-10T03:52:06.393Z,48.32
2022-08-10T03:55:08.408Z,47.95
2022-08-10T03:58:11.016Z,48.16
2022-08-10T04:01:14.933Z,47.99
2022-08-10T04:04:22.855Z,48.18
2022-08-10T04:07:26.369Z,48.16
2022-08-10T04:10:29.054Z,47.95
2022-08-10T04:13:30.729Z,48.03
2022-08-10T04:16:32.383Z,48.15
2022-08-10T04:19:41.115Z,48.08
2022-08-10T04:22:44.736Z,48.36
2022-08-10T04:25:46.512Z,48.26
2022-08-10T04:28:49.174Z,48.10
2022-08-10T04:31:52.828Z,48.28
2022-08-10T04:34:58.143Z,48.11
2022-08-10T04:38:02.118Z,48.22
2022-08-10T04:41:03.974Z,48.23
2022-08-10T04:44:05.636Z,48.42
2022-08-10T04:47:07.986Z,48.55
2022-08-10T04:50:10.146Z,48.23
2022-08-10T04:53:11.745Z,48.72
2022-08-10T04:56:13.402Z,48.45
2022-08-10T04:59:14.938Z,48.57
2022-08-10T05:02:29.663Z,48.40
2022-08-10T05:05:38.443Z,48.57
2022-08-10T05:08:40.009Z,48.51
2022-08-10T05:11:41.605Z,48.91
2022-08-10T05:14:43.213Z,48.80
2022-08-10T05:18:09.178Z,49.07
2022-08-10T05:21:07.502Z,48.93
2022-08-10T05:24:09.056Z,48.83
2022-08-10T05:27:10.788Z,49.15
2022-08-10T05:30:20.725Z,48.89
2022-08-10T05:33:22.288Z,48.87
2022-08-10T05:36:24.680Z,48.85
2022-08-10T05:39:30.124Z,49.04
2022-08-10T05:42:35.133Z,49.10
2022-08-10T05:46:18.651Z,49.31
2022-08-10T05:49:00.971Z,49.07
2022-08-10T05:52:03.883Z,49.31
2022-08-10T05:55:06.371Z,49.07
2022-08-10T05:58:08.105Z,49.27
2022-08-10T06:01:15.096Z,49.40
2022-08-10T06:04:24.697Z,49.17
2022-08-10T06:07:29.873Z,49.39
2022-08-10T06:10:35.815Z,49.21
2022-08-10T06:14:16.149Z,49.14
2022-08-10T06:17:20.339Z,49.34
2022-08-10T06:20:22.145Z,49.38
2022-08-10T06:23:25.726Z,49.54
2022-08-10T06:26:27.405Z,49.60
2022-08-10T06:29:32.095Z,49.50
2022-08-10T06:32:33.894Z,49.70
2022-08-10T06:35:36.716Z,49.26
2022-08-10T06:38:40.724Z,49.50
2022-08-10T06:42:14.155Z,49.35
2022-08-10T06:45:17.750Z,49.30
2022-08-10T06:48:29.873Z,49.13
2022-08-10T06:51:35.023Z,49.41
2022-08-10T06:54:38.168Z,49.28
2022-08-10T06:57:41.369Z,49.22
2022-08-10T07:00:44.766Z,49.43
2022-08-10T07:03:53.830Z,49.17
2022-08-10T07:06:56.794Z,49.29
2022-08-10T07:10:00.177Z,49.32
2022-08-10T07:13:02.874Z,49.29
2022-08-10T07:16:08.148Z,49.13
2022-08-10T07:19:10.943Z,49.23
2022-08-10T07:23:22.869Z,49.06
2022-08-10T07:25:38.933Z,49.09
2022-08-10T07:28:45.022Z,49.13
2022-08-10T07:31:55.598Z,49.10
2022-08-10T07:35:01.166Z,48.94
2022-08-10T07:38:07.544Z,48.86
2022-08-10T07:41:10.624Z,48.89
2022-08-10T07:44:14.130Z,48.89
2022-08-10T07:47:19.885Z,48.56
2022-08-10T07:50:43.725Z,48.48
2022-08-10T07:53:53.829Z,48.68
2022-08-10T07:57:01.812Z,48.50
2022-08-10T08:00:08.027Z,48.28
2022-08-10T08:03:13.354Z,48.68
2022-08-10T08:06:16.530Z,48.61
2022-08-10T08:09:20.480Z,48.70
2022-08-10T08:12:23.375Z,48.66
2022-08-10T08:16:17.370Z,48.61
2022-08-10T08:19:16.490Z,48.17
2022-08-10T08:24:08.544Z,48.54
2022-08-10T08:25:36.382Z,48.45
2022-08-10T08:28:39.073Z,48.41
2022-08-10T08:31:59.121Z,48.34
2022-08-10T08:35:07.377Z,47.92
2022-08-10T08:38:33.686Z,48.20
2022-08-10T08:41:31.832Z,48.12
2022-08-10T08:44:59.834Z,48.00
2022-08-10T08:48:19.833Z,47.95
2022-08-10T08:52:07.867Z,47.85
2022-08-10T08:56:03.091Z,47.92
2022-08-10T08:59:02.681Z,47.92
2022-08-10T09:02:41.608Z,47.56
2022-08-10T09:05:59.302Z,47.54
2022-08-10T09:09:38.897Z,47.45
2022-08-10T09:12:40.518Z,47.28
2022-08-10T09:16:03.291Z,47.33
2022-08-10T09:19:35.100Z,47.53
2022-08-10T09:22:43.193Z,47.36
2022-08-10T09:25:53.949Z,47.27
2022-08-10T09:29:12.302Z,47.02
2022-08-10T09:36:14.216Z,46.74
2022-08-10T09:36:21.259Z,46.91
2022-08-10T09:40:12.632Z,46.91
2022-08-10T09:43:21.696Z,46.53
2022-08-10T09:46:33.365Z,46.57
2022-08-10T09:49:54.811Z,46.48
2022-08-10T09:53:16.516Z,46.29
2022-08-10T09:56:28.759Z,46.19
2022-08-10T10:00:01.754Z,46.06
2022-08-10T10:03:12.631Z,45.63
2022-08-10T10:06:20.384Z,45.61
2022-08-10T10:09:30.932Z,45.71
2022-08-10T10:12:54.916Z,45.46
2022-08-10T10:16:41.910Z,45.63
2022-08-10T10:19:43.435Z,45.42
2022-08-10T10:23:05.304Z,45.22
2022-08-10T10:26:18.350Z,44.86
2022-08-10T10:29:56.224Z,45.12
2022-08-10T10:33:13.380Z,44.70
2022-08-10T10:36:17.764Z,44.91
2022-08-10T10:39:24.122Z,44.48
2022-08-10T10:42:45.101Z,44.37
2022-08-10T10:46:02.346Z,44.68
2022-08-10T10:49:20.492Z,44.03
2022-08-10T10:52:43.181Z,44.46
2022-08-10T10:56:14.754Z,44.40
2022-08-10T10:59:56.988Z,43.87
2022-08-10T11:02:59.312Z,44.17
2022-08-10T11:06:39.810Z,43.78
2022-08-10T11:10:05.015Z,43.65
2022-08-10T11:14:24.342Z,43.39
2022-08-10T11:17:34.534Z,43.60
2022-08-10T11:20:43.634Z,43.41
2022-08-10T11:24:47.942Z,43.17
2022-08-10T11:27:52.930Z,43.20
2022-08-10T11:31:13.887Z,43.03
2022-08-10T11:34:47.495Z,42.87
2022-08-10T11:38:34.316Z,42.78
2022-08-10T11:42:09.402Z,42.59
2022-08-10T11:45:07.071Z,42.39
2022-08-10T11:48:08.681Z,42.45
2022-08-10T11:51:20.106Z,42.71
2022-08-10T11:54:31.473Z,42.25
2022-08-10T11:57:53.827Z,42.31
2022-08-10T12:00:59.648Z,42.51
2022-08-10T12:04:07.635Z,42.32
2022-08-10T12:10:07.123Z,41.87
2022-08-10T12:10:40.937Z,41.80
2022-08-10T12:14:20.972Z,41.70
2022-08-10T12:17:31.664Z,41.72
2022-08-10T12:20:37.449Z,41.60
2022-08-10T12:24:02.461Z,41.82
2022-08-10T12:27:24.757Z,41.44
2022-08-10T12:30:36.251Z,41.43
2022-08-10T12:34:02.184Z,41.05
2022-08-10T12:37:26.797Z,40.97
2022-08-10T12:40:38.011Z,41.21
2022-08-10T12:44:04.685Z,40.92
2022-08-10T12:47:20.190Z,40.68
2022-08-10T12:50:40.510Z,41.24
2022-08-10T12:54:03.801Z,40.68
2022-08-10T12:57:14.421Z,40.63
2022-08-10T13:00:17.569Z,40.12
2022-08-10T13:04:21.886Z,40.49
2022-08-10T13:06:49.907Z,40.49
2022-08-10T13:09:56.171Z,40.26
2022-08-10T13:13:00.307Z,39.97
2022-08-10T13:16:03.153Z,39.96
2022-08-10T13:19:06.678Z,40.05
2022-08-10T13:22:10.148Z,40.00
2022-08-10T13:25:13.873Z,39.98
2022-08-10T13:28:35.491Z,39.79
2022-08-10T13:32:04.384Z,39.72
2022-08-10T13:35:12.228Z,39.82
2022-08-10T13:38:20.028Z,39.57
2022-08-10T13:41:27.647Z,39.47
2022-08-10T13:44:38.753Z,39.72
2022-08-10T13:47:48.667Z,39.44
2022-08-10T13:50:56.730Z,39.56
2022-08-10T13:54:00.176Z,39.29
2022-08-10T13:57:02.298Z,39.32
2022-08-10T14:00:36.849Z,39.16
2022-08-10T14:03:37.478Z,38.99
2022-08-10T14:06:40.925Z,39.04
2022-08-10T14:09:43.708Z,39.01
2022-08-10T14:12:48.625Z,39.10
2022-08-10T14:15:50.632Z,38.93
2022-08-10T14:18:59.772Z,38.56
2022-08-10T14:22:02.297Z,38.91
2022-08-10T14:25:12.237Z,38.72
2022-08-10T14:28:14.648Z,38.71
2022-08-10T14:31:22.153Z,38.51
2022-08-10T14:36:16.256Z,38.47
2022-08-10T14:37:57.625Z,38.62
2022-08-10T14:41:03.905Z,38.60
2022-08-10T14:44:09.605Z,38.47
2022-08-10T14:47:51.608Z,38.44
2022-08-10T14:50:35.674Z,38.46
2022-08-10T14:53:39.632Z,38.13
2022-08-10T14:56:43.835Z,38.32
2022-08-10T15:00:25.327Z,37.97
2022-08-10T15:04:02.302Z,38.00
2022-08-10T15:06:53.504Z,38.20
2022-08-10T15:10:00.469Z,37.97
2022-08-10T15:13:34.815Z,38.19
2022-08-10T15:16:34.018Z,38.00
2022-08-10T15:20:03.420Z,38.00
2022-08-10T15:23:30.472Z,38.08
2022-08-10T15:26:33.192Z,37.96
2022-08-10T15:29:36.932Z,37.91
2022-08-10T15:34:00.263Z,37.92
2022-08-10T15:37:36.372Z,37.96
2022-08-10T15:40:49.672Z,37.73
2022-08-10T15:43:56.045Z,37.82
2022-08-10T15:47:02.571Z,37.75
2022-08-10T15:50:13.231Z,37.66
2022-08-10T15:53:29.626Z,37.60
2022-08-10T15:56:43.637Z,37.50
2022-08-10T15:59:53.533Z,37.96
2022-08-10T16:03:00.983Z,37.71
2022-08-10T16:06:03.582Z,37.64
2022-08-10T16:10:24.789Z,37.46
2022-08-10T16:13:01.422Z,37.17
2022-08-10T16:16:08.949Z,37.52
2022-08-10T16:19:24.521Z,37.63
2022-08-10T16:22:35.521Z,37.43
2022-08-10T16:25:48.214Z,37.00
2022-08-10T16:29:07.842Z,37.32
2022-08-10T16:32:11.212Z,37.38
2022-08-10T16:35:17.569Z,37.11
2022-08-10T16:38:22.139Z,37.20
2022-08-10T16:42:05.382Z,37.00
2022-08-10T16:44:57.798Z,36.89
2022-08-10T16:48:00.578Z,37.36
2022-08-10T16:51:04.595Z,37.15
2022-08-10T16:54:08.157Z,37.24
2022-08-10T16:57:12.883Z,36.82
2022-08-10T17:00:19.072Z,37.15
2022-08-10T17:04:08.505Z,37.05
2022-08-10T17:07:02.940Z,36.92
2022-08-10T17:10:09.647Z,37.00
2022-08-10T17:13:14.058Z,36.95
2022-08-10T17:16:17.526Z,37.10
2022-08-10T17:19:23.468Z,36.95
2022-08-10T17:22:28.133Z,36.73
2022-08-10T17:25:45.858Z,37.09
2022-08-10T17:28:54.245Z,36.66
2022-08-10T17:32:05.683Z,36.94
2022-08-10T17:35:11.105Z,36.56
2022-08-10T17:38:19.547Z,36.69
2022-08-10T17:41:25.572Z,36.52
2022-08-10T17:44:29.192Z,36.65
2022-08-10T17:47:32.326Z,36.44
2022-08-10T17:50:36.966Z,36.89
2022-08-10T17:53:48.376Z,36.72
2022-08-10T17:56:52.445Z,36.45
2022-08-10T17:59:55.307Z,36.73
2022-08-10T18:02:58.456Z,36.94
2022-08-10T18:06:02.177Z,36.98
2022-08-10T18:09:09.838Z,36.58
2022-08-10T18:12:18.420Z,37.10
2022-08-10T18:15:24.586Z,37.13
2022-08-10T18:18:27.927Z,36.80
2022-08-10T18:21:32.158Z,36.91
2022-08-10T18:24:37.192Z,36.87
2022-08-10T18:28:02.017Z,37.22
2022-08-10T18:31:04.293Z,36.74
2022-08-10T18:34:08.308Z,36.77
2022-08-10T18:37:20.842Z,37.04
2022-08-10T18:40:23.060Z,37.23
2022-08-10T18:44:05.063Z,36.97
2022-08-10T18:47:17.813Z,37.16
2022-08-10T18:50:26.364Z,37.17
2022-08-10T18:53:35.896Z,37.06
2022-08-10T18:56:52.626Z,37.20
2022-08-10T19:00:08.699Z,37.33
2022-08-10T19:03:58.928Z,37.27
2022-08-10T19:07:28.664Z,37.53
2022-08-10T19:11:02.819Z,37.27
2022-08-10T19:14:20.419Z,37.48
2022-08-10T19:18:03.772Z,37.60
2022-08-10T19:21:19.028Z,37.93
2022-08-10T19:24:26.401Z,38.10
2022-08-10T19:27:57.811Z,38.13
2022-08-10T19:31:44.446Z,38.10
2022-08-10T19:34:58.341Z,38.47
2022-08-10T19:38:16.695Z,38.36
2022-08-10T19:41:54.508Z,38.36
2022-08-10T19:46:01.731Z,38.51
2022-08-10T19:48:55.062Z,38.60
2022-08-10T19:52:11.604Z,38.82
2022-08-10T19:55:21.738Z,38.48
2022-08-10T19:58:36.400Z,38.76
2022-08-10T20:01:55.024Z,38.85
2022-08-10T20:05:22.592Z,38.73
2022-08-10T20:08:31.884Z,39.03
2022-08-10T20:11:45.531Z,38.89
2022-08-10T20:15:31.607Z,38.93
2022-08-10T20:18:54.320Z,39.18
2022-08-10T20:22:02.593Z,39.16
2022-08-10T20:25:14.424Z,39.36
2022-08-10T20:28:19.216Z,39.22
2022-08-10T20:31:26.453Z,39.46
2022-08-10T20:34:36.593Z,39.56
2022-08-10T20:38:06.424Z,39.48
2022-08-10T20:41:20.246Z,39.60
2022-08-10T20:44:31.013Z,39.59
2022-08-10T20:47:54.297Z,39.86
2022-08-10T20:50:58.050Z,40.12
2022-08-10T20:54:05.683Z,39.94
2022-08-10T20:57:55.525Z,39.92
2022-08-10T21:00:50.691Z,40.07
2022-08-10T21:04:02.963Z,39.94
2022-08-10T21:11:22.837Z,40.19
2022-08-10T21:15:02.016Z,40.47
2022-08-10T21:18:24.938Z,40.46
2022-08-10T21:21:44.961Z,40.46
2022-08-10T21:25:02.925Z,40.59
2022-08-10T21:28:36.066Z,40.57
2022-08-10T21:31:50.429Z,40.47
2022-08-10T21:35:09.197Z,40.90
2022-08-10T21:38:52.116Z,40.84
2022-08-10T21:42:36.944Z,40.82
2022-08-10T21:46:02.952Z,40.59
2022-08-10T21:49:44.588Z,40.76
2022-08-10T21:53:08.925Z,40.95
2022-08-10T21:56:39.219Z,41.10
2022-08-10T22:00:16.759Z,41.32
2022-08-10T22:03:40.028Z,41.27
2022-08-10T22:07:03.083Z,41.48
2022-08-10T22:10:29.933Z,41.28
2022-08-10T22:13:52.292Z,41.91
2022-08-10T22:18:01.243Z,41.47
2022-08-10T22:21:02.092Z,41.91
2022-08-10T22:24:41.418Z,41.99
2022-08-10T22:28:02.256Z,41.81
2022-08-10T22:32:01.549Z,41.82
2022-08-10T22:35:49.680Z,42.43
2022-08-10T22:40:11.971Z,42.64
2022-08-10T22:43:35.911Z,42.76
2022-08-10T22:47:00.454Z,42.71
2022-08-10T22:50:03.231Z,42.85
2022-08-10T22:53:11.444Z,43.08
2022-08-10T22:56:37.993Z,42.91
2022-08-10T22:59:39.693Z,43.36
2022-08-10T23:02:50.353Z,43.04
2022-08-10T23:06:04.103Z,43.31
2022-08-10T23:09:08.585Z,43.51
2022-08-10T23:12:18.224Z,43.44
2022-08-10T23:15:46.012Z,43.64
2022-08-10T23:19:09.568Z,43.65
2022-08-10T23:22:16.597Z,43.37
2022-08-10T23:25:28.333Z,43.48
2022-08-10T23:28:38.358Z,43.62
2022-08-10T23:32:01.494Z,43.59
2022-08-10T23:36:30.313Z,43.62
2022-08-10T23:38:35.516Z,44.00
2022-08-10T23:41:38.860Z,43.79
2022-08-10T23:44:47.863Z,44.03
2022-08-10T23:47:55.940Z,44.00
2022-08-10T23:54:10.020Z,43.82
2022-08-10T23:57:16.501Z,43.92
